New York, New York
Traffic Map
Current Weather Conditions
New York, New York
Clear
Clear

Feels Like: 1°
Wind Chill: Ceiling: Unl
Heat Index: Visibility: 10mi
Dew Point: -6° Wind: 8mph
Humidity: 49% Direction: 280° (W)
Pressure: 29.93in Gusts: 16mph
Raw Report DataKNYC 250751Z AUTO 28007G14KT 10SM CLR 04/M06 A2993 RMK AO2 SLP126 T00391061 $
Traffic Incident Summary
Active as of:
Severity:
Category:
InformationThere was an issue retrieving the traffic information for this location. Please try a different location or try again shortly.
Advertisements
Track Severe Weather on mobile